Somerset, Michigan
Current Conditions -  °F | °C
As of 5:34 AM on Thursday 27 Nov 2014 (Local Time) from KJYM Reporting Station
Overcast Overcast  
Wind Chill: 20°   Ceiling: 3500
Heat Index: 27°   Visibility: 10mi
Dew Point: 24°   Wind: 6mph
Humidity: 90%   Direction: 310°NW
Pressure: 30.11"   Gusts: NA
Location:  42.05°N, 84.38°W
Report Text: KJYM 271034Z AUTO 31005KT 10SM OVC035 M03/M04 A3011 RMK AO2 T10281043
Loading
Personal Weather Stations






























Interactive Weather Map New forecast layout! Learn more

10-Day Weather Forecast

Advertisements
Track Severe Weather on mobile